createdAt,value
2023-02-16T00:01:22.632Z,20.30
2023-02-16T00:02:54.922Z,19.78
2023-02-16T00:04:26.229Z,20.94
2023-02-16T00:05:57.786Z,21.09
2023-02-16T00:07:29.189Z,20.20
2023-02-16T00:09:00.616Z,20.13
2023-02-16T00:10:31.889Z,20.74
2023-02-16T00:12:03.220Z,19.48
2023-02-16T00:13:34.588Z,20.42
2023-02-16T00:15:05.892Z,21.01
2023-02-16T00:16:37.146Z,20.93
2023-02-16T00:18:08.482Z,20.54
2023-02-16T00:19:39.992Z,20.74
2023-02-16T00:21:11.660Z,20.85
2023-02-16T00:22:43.154Z,20.44
2023-02-16T00:24:14.525Z,20.36
2023-02-16T00:25:45.816Z,20.15
2023-02-16T00:27:17.136Z,20.80
2023-02-16T00:28:48.702Z,21.00
2023-02-16T00:30:20.041Z,20.22
2023-02-16T00:31:51.569Z,20.40
2023-02-16T00:33:22.994Z,20.53
2023-02-16T00:34:54.472Z,20.26
2023-02-16T00:36:25.919Z,20.77
2023-02-16T00:37:57.357Z,20.61
2023-02-16T00:39:28.812Z,20.79
2023-02-16T00:41:00.276Z,20.52
2023-02-16T00:42:31.854Z,21.04
2023-02-16T00:44:03.116Z,21.49
2023-02-16T00:45:34.416Z,20.70
2023-02-16T00:47:05.861Z,20.86
2023-02-16T00:48:37.084Z,20.76
2023-02-16T00:50:08.510Z,20.08
2023-02-16T00:51:39.860Z,20.14
2023-02-16T00:53:16.391Z,20.98
2023-02-16T00:54:47.944Z,21.03
2023-02-16T00:56:19.230Z,20.56
2023-02-16T00:57:50.625Z,20.44
2023-02-16T00:59:21.893Z,20.37
2023-02-16T01:00:53.286Z,20.50
2023-02-16T01:02:24.540Z,20.94
2023-02-16T01:03:55.965Z,20.42
2023-02-16T01:05:27.321Z,20.30
2023-02-16T01:06:58.698Z,21.15
2023-02-16T01:08:30.024Z,21.08
2023-02-16T01:10:01.299Z,21.12
2023-02-16T01:11:32.729Z,21.23
2023-02-16T01:13:04.230Z,20.93
2023-02-16T01:14:35.623Z,20.74
2023-02-16T01:16:07.347Z,21.34
2023-02-16T01:17:43.804Z,20.77
2023-02-16T01:19:15.367Z,21.49
2023-02-16T01:20:46.780Z,21.06
2023-02-16T01:22:18.213Z,20.73
2023-02-16T01:23:49.804Z,21.32
2023-02-16T01:25:21.088Z,21.44
2023-02-16T01:26:52.373Z,21.31
2023-02-16T01:28:23.625Z,20.42
2023-02-16T01:29:55.171Z,20.88
2023-02-16T01:31:26.682Z,20.95
2023-02-16T01:32:58.114Z,21.36
2023-02-16T01:34:29.542Z,21.30
2023-02-16T01:36:00.792Z,20.92
2023-02-16T01:37:32.046Z,20.95
2023-02-16T01:39:03.429Z,21.12
2023-02-16T01:40:34.827Z,20.73
2023-02-16T01:42:06.579Z,20.84
2023-02-16T01:43:37.882Z,21.06
2023-02-16T01:45:09.146Z,20.98
2023-02-16T01:46:40.539Z,20.80
2023-02-16T01:48:12.029Z,21.12
2023-02-16T01:49:43.322Z,20.25
2023-02-16T01:51:14.587Z,20.64
2023-02-16T01:52:46.087Z,21.09
2023-02-16T01:54:17.451Z,21.34
2023-02-16T01:55:48.852Z,20.69
2023-02-16T01:57:20.692Z,20.91
2023-02-16T01:58:51.998Z,20.94
2023-02-16T02:00:23.235Z,20.23
2023-02-16T02:01:54.663Z,20.75
2023-02-16T02:03:25.974Z,20.69
2023-02-16T02:04:57.390Z,20.78
2023-02-16T02:06:28.866Z,19.94
2023-02-16T02:08:01.358Z,20.82
2023-02-16T02:09:32.645Z,20.67
2023-02-16T02:11:04.230Z,20.61
2023-02-16T02:12:35.650Z,20.59
2023-02-16T02:14:07.014Z,21.10
2023-02-16T02:15:38.491Z,20.72
2023-02-16T02:17:09.732Z,20.85
2023-02-16T02:18:41.029Z,20.86
2023-02-16T02:20:12.437Z,20.91
2023-02-16T02:21:44.111Z,20.82
2023-02-16T02:23:15.328Z,21.16
2023-02-16T02:24:46.686Z,20.95
2023-02-16T02:26:18.037Z,21.08
2023-02-16T02:27:50.456Z,20.59
2023-02-16T02:29:23.763Z,21.13
2023-02-16T02:30:56.095Z,21.35
2023-02-16T02:32:29.115Z,20.89
2023-02-16T02:34:06.131Z,21.16
2023-02-16T02:35:37.370Z,20.50
2023-02-16T02:37:08.683Z,20.70
2023-02-16T02:38:40.076Z,20.69
2023-02-16T02:40:11.764Z,20.71
2023-02-16T02:41:43.040Z,20.47
2023-02-16T02:43:14.564Z,21.66
2023-02-16T02:44:45.965Z,20.32
2023-02-16T02:46:17.271Z,21.42
2023-02-16T02:47:48.698Z,21.28
2023-02-16T02:49:20.045Z,21.26
2023-02-16T02:50:51.596Z,20.87
2023-02-16T02:52:23.206Z,20.43
2023-02-16T02:53:54.756Z,19.92
2023-02-16T02:55:26.157Z,21.30
2023-02-16T02:56:57.519Z,21.02
2023-02-16T02:58:29.088Z,20.55
2023-02-16T03:00:00.832Z,20.68
2023-02-16T03:01:32.345Z,20.50
2023-02-16T03:03:03.808Z,20.54
2023-02-16T03:04:35.113Z,20.59
2023-02-16T03:06:06.487Z,20.72
2023-02-16T03:07:38.137Z,20.77
2023-02-16T03:09:09.484Z,20.92
2023-02-16T03:10:40.925Z,20.83
2023-02-16T03:12:12.405Z,20.72
2023-02-16T03:13:43.994Z,20.51
2023-02-16T03:15:15.374Z,20.14
2023-02-16T03:16:46.962Z,20.81
2023-02-16T03:18:18.367Z,21.38
2023-02-16T03:19:50.027Z,20.97
2023-02-16T03:21:21.630Z,21.04
2023-02-16T03:22:53.215Z,20.70
2023-02-16T03:24:24.703Z,20.72
2023-02-16T03:25:56.272Z,20.84
2023-02-16T03:27:27.536Z,20.49
2023-02-16T03:28:59.138Z,20.17
2023-02-16T03:30:30.707Z,20.77
2023-02-16T03:32:02.347Z,20.58
2023-02-16T03:33:33.633Z,21.29
2023-02-16T03:35:04.857Z,20.85
2023-02-16T03:36:36.268Z,20.94
2023-02-16T03:38:07.782Z,21.45
2023-02-16T03:39:40.596Z,21.29
2023-02-16T03:41:12.236Z,21.02
2023-02-16T03:42:43.727Z,20.04
2023-02-16T03:44:15.231Z,21.30
2023-02-16T03:45:47.384Z,20.26
2023-02-16T03:47:18.685Z,20.70
2023-02-16T03:48:49.913Z,20.53
2023-02-16T03:50:21.198Z,20.10
2023-02-16T03:51:52.478Z,20.58
2023-02-16T03:53:23.848Z,20.68
2023-02-16T03:54:55.119Z,20.76
2023-02-16T03:56:26.442Z,20.36
2023-02-16T03:57:57.904Z,20.72
2023-02-16T03:59:29.324Z,20.65
2023-02-16T04:01:00.652Z,20.85
2023-02-16T04:02:31.927Z,20.77
2023-02-16T04:04:03.390Z,21.09
2023-02-16T04:05:34.748Z,20.93
2023-02-16T04:07:06.026Z,21.34
2023-02-16T04:08:37.552Z,21.26
2023-02-16T04:10:08.967Z,21.51
2023-02-16T04:11:40.444Z,21.00
2023-02-16T04:13:11.754Z,20.87
2023-02-16T04:14:43.781Z,21.06
2023-02-16T04:16:15.172Z,21.07
2023-02-16T04:17:46.498Z,21.40
2023-02-16T04:19:23.177Z,20.64
2023-02-16T04:20:54.455Z,21.16
2023-02-16T04:22:25.742Z,20.59
2023-02-16T04:23:57.216Z,21.39
2023-02-16T04:25:28.790Z,21.84
2023-02-16T04:27:00.076Z,20.98
2023-02-16T04:28:31.330Z,20.94
2023-02-16T04:30:02.744Z,21.24
2023-02-16T04:31:34.464Z,21.48
2023-02-16T04:33:05.947Z,21.74
2023-02-16T04:34:37.242Z,21.61
2023-02-16T04:36:08.582Z,21.52
2023-02-16T04:37:39.867Z,21.01
2023-02-16T04:39:11.455Z,21.73
2023-02-16T04:40:43.106Z,21.24
2023-02-16T04:42:14.595Z,20.89
2023-02-16T04:43:46.191Z,21.13
2023-02-16T04:45:17.563Z,21.27
2023-02-16T04:46:49.228Z,21.41
2023-02-16T04:48:20.617Z,21.22
2023-02-16T04:49:52.144Z,21.40
2023-02-16T04:51:23.609Z,21.91
2023-02-16T04:52:54.864Z,21.30
2023-02-16T04:54:26.397Z,21.49
2023-02-16T04:55:57.977Z,20.88
2023-02-16T04:57:29.704Z,20.87
2023-02-16T04:59:42.583Z,21.02
2023-02-16T05:01:13.768Z,21.14
2023-02-16T05:02:45.412Z,21.45
2023-02-16T05:04:16.771Z,21.50
2023-02-16T05:05:48.153Z,21.06
2023-02-16T05:07:19.358Z,21.49
2023-02-16T05:08:50.558Z,21.58
2023-02-16T05:10:22.198Z,21.42
2023-02-16T05:11:53.520Z,22.08
2023-02-16T05:13:25.371Z,22.01
2023-02-16T05:14:56.757Z,21.53
2023-02-16T05:16:28.043Z,21.39
2023-02-16T05:17:59.476Z,22.28
2023-02-16T05:19:30.902Z,21.41
2023-02-16T05:21:02.536Z,21.60
2023-02-16T05:22:34.007Z,21.52
2023-02-16T05:24:05.243Z,21.82
2023-02-16T05:25:36.534Z,22.47
2023-02-16T05:27:07.920Z,22.60
2023-02-16T05:28:39.234Z,21.91
2023-02-16T05:30:10.670Z,22.03
2023-02-16T05:31:42.382Z,21.83
2023-02-16T05:33:13.698Z,22.12
2023-02-16T05:34:45.065Z,22.48
2023-02-16T05:36:16.322Z,22.66
2023-02-16T05:37:47.642Z,21.78
2023-02-16T05:39:19.000Z,22.48
2023-02-16T05:40:50.371Z,21.95
2023-02-16T05:42:22.100Z,22.15
2023-02-16T05:43:53.623Z,22.16
2023-02-16T05:45:24.981Z,22.43
2023-02-16T05:46:56.437Z,22.07
2023-02-16T05:48:27.815Z,22.21
2023-02-16T05:49:59.426Z,22.13
2023-02-16T05:51:31.079Z,22.46
2023-02-16T05:53:02.402Z,22.54
2023-02-16T05:54:33.667Z,22.71
2023-02-16T05:56:07.385Z,22.55
2023-02-16T05:57:38.957Z,22.81
2023-02-16T05:59:10.419Z,22.42
2023-02-16T06:00:41.655Z,21.78
2023-02-16T06:02:13.191Z,22.97
2023-02-16T06:03:44.777Z,22.45
2023-02-16T06:05:16.075Z,22.93
2023-02-16T06:06:47.359Z,22.90
2023-02-16T06:08:18.933Z,23.01
2023-02-16T06:09:50.301Z,22.56
2023-02-16T06:11:21.856Z,22.59
2023-02-16T06:12:53.228Z,21.72
2023-02-16T06:14:24.438Z,22.70
2023-02-16T06:15:55.790Z,22.97
2023-02-16T06:17:27.082Z,23.26
2023-02-16T06:19:03.512Z,22.22
2023-02-16T06:20:55.005Z,22.13
2023-02-16T06:22:26.705Z,22.50
2023-02-16T06:23:58.147Z,22.97
2023-02-16T06:25:29.355Z,22.99
2023-02-16T06:27:00.716Z,22.59
2023-02-16T06:28:32.159Z,22.45
2023-02-16T06:30:03.435Z,22.90
2023-02-16T06:31:36.573Z,22.53
2023-02-16T06:33:08.907Z,22.09
2023-02-16T06:34:40.242Z,21.98
2023-02-16T06:36:11.526Z,21.69
2023-02-16T06:37:42.940Z,22.41
2023-02-16T06:39:14.470Z,22.18
2023-02-16T06:40:45.922Z,21.91
2023-02-16T06:42:17.394Z,22.44
2023-02-16T06:43:49.040Z,22.63
2023-02-16T06:45:20.306Z,21.63
2023-02-16T06:46:51.672Z,21.65
2023-02-16T06:48:23.355Z,22.19
2023-02-16T06:49:55.206Z,22.05
2023-02-16T06:51:26.587Z,21.95
2023-02-16T06:52:57.925Z,22.12
2023-02-16T06:54:29.674Z,22.20
2023-02-16T06:56:00.974Z,22.30
2023-02-16T06:57:33.698Z,21.62
2023-02-16T06:59:05.093Z,22.02
2023-02-16T07:00:38.908Z,21.77
2023-02-16T07:02:10.216Z,21.81
2023-02-16T07:03:42.506Z,21.76
2023-02-16T07:05:14.000Z,22.08
2023-02-16T07:06:45.293Z,22.32
2023-02-16T07:08:16.548Z,21.95
2023-02-16T07:09:48.058Z,21.53
2023-02-16T07:11:19.841Z,21.31
2023-02-16T07:12:51.339Z,20.87
2023-02-16T07:14:24.097Z,21.57
2023-02-16T07:15:55.636Z,22.00
2023-02-16T07:17:27.227Z,21.63
2023-02-16T07:18:58.631Z,21.53
2023-02-16T07:20:30.208Z,21.32
2023-02-16T07:22:01.642Z,21.00
2023-02-16T07:23:32.984Z,21.51
2023-02-16T07:25:04.222Z,21.09
2023-02-16T07:26:35.453Z,21.73
2023-02-16T07:28:06.928Z,21.52
2023-02-16T07:29:38.200Z,21.50
2023-02-16T07:31:09.603Z,21.97
2023-02-16T07:32:41.053Z,21.60
2023-02-16T07:34:12.822Z,21.50
2023-02-16T07:35:44.225Z,20.80
2023-02-16T07:37:15.484Z,20.99
2023-02-16T07:38:46.899Z,20.71
2023-02-16T07:40:18.173Z,21.36
2023-02-16T07:41:49.499Z,20.36
2023-02-16T07:43:20.790Z,20.47
2023-02-16T07:44:52.165Z,20.34
2023-02-16T07:46:23.728Z,20.89
2023-02-16T07:47:55.085Z,20.57
2023-02-16T07:49:26.331Z,20.12
2023-02-16T07:50:57.901Z,20.96
2023-02-16T07:52:29.481Z,20.76
2023-02-16T07:54:00.788Z,20.15
2023-02-16T07:55:32.083Z,19.46
2023-02-16T07:57:03.418Z,20.64
2023-02-16T07:58:34.687Z,20.48
2023-02-16T08:00:05.888Z,20.09
2023-02-16T08:01:37.700Z,19.58
2023-02-16T08:03:09.086Z,19.37
2023-02-16T08:04:40.511Z,19.41
2023-02-16T08:06:12.004Z,20.52
2023-02-16T08:07:44.694Z,20.09
2023-02-16T08:09:16.925Z,20.32
2023-02-16T08:10:48.185Z,19.60
2023-02-16T08:12:19.463Z,19.19
2023-02-16T08:13:50.967Z,19.74
2023-02-16T08:15:22.242Z,19.76
2023-02-16T08:16:55.545Z,19.93
2023-02-16T08:18:28.027Z,19.07
2023-02-16T08:19:59.544Z,19.83
2023-02-16T08:21:30.956Z,19.22
2023-02-16T08:23:02.428Z,19.70
2023-02-16T08:24:39.054Z,18.87
2023-02-16T08:26:10.416Z,19.29
2023-02-16T08:27:41.758Z,19.33
2023-02-16T08:29:12.985Z,18.86
2023-02-16T08:30:49.472Z,18.43
2023-02-16T08:32:21.812Z,18.13
2023-02-16T08:33:53.158Z,18.49
2023-02-16T08:35:24.500Z,18.33
2023-02-16T08:36:55.796Z,18.85
2023-02-16T08:38:27.201Z,18.65
2023-02-16T08:39:58.616Z,17.68
2023-02-16T08:41:30.549Z,18.52
2023-02-16T08:43:02.263Z,18.75
2023-02-16T08:44:33.811Z,16.86
2023-02-16T08:46:05.742Z,17.79
2023-02-16T08:47:37.457Z,17.20
2023-02-16T08:49:09.026Z,18.30
2023-02-16T08:50:40.755Z,18.24
2023-02-16T08:52:12.257Z,18.49
2023-02-16T08:53:43.785Z,18.42
2023-02-16T08:55:15.308Z,18.31
2023-02-16T08:56:48.074Z,19.02
2023-02-16T08:58:19.553Z,19.36
2023-02-16T08:59:51.036Z,18.29
2023-02-16T09:01:22.895Z,18.20
2023-02-16T09:02:55.961Z,18.33
2023-02-16T09:04:27.466Z,17.96
2023-02-16T09:05:58.884Z,18.27
2023-02-16T09:07:30.380Z,18.58
2023-02-16T09:09:01.856Z,18.33
2023-02-16T09:10:33.618Z,18.07
2023-02-16T09:12:04.899Z,18.05
2023-02-16T09:13:37.153Z,18.35
2023-02-16T09:15:08.609Z,18.00
2023-02-16T09:16:40.271Z,17.62
2023-02-16T09:18:11.749Z,18.40
2023-02-16T09:19:43.041Z,18.22
2023-02-16T09:21:14.588Z,18.05
2023-02-16T09:22:47.572Z,18.80
2023-02-16T09:24:18.997Z,18.12
2023-02-16T09:25:50.846Z,18.76
2023-02-16T09:27:22.153Z,17.88
2023-02-16T09:28:53.480Z,17.45
2023-02-16T09:30:24.837Z,17.23
2023-02-16T09:31:56.455Z,16.96
2023-02-16T09:33:27.826Z,17.28
2023-02-16T09:34:59.154Z,17.25
2023-02-16T09:36:30.521Z,16.51
2023-02-16T09:38:01.795Z,16.75
2023-02-16T09:39:34.395Z,16.95
2023-02-16T09:41:37.133Z,17.40
2023-02-16T09:43:09.591Z,17.98
2023-02-16T09:44:40.868Z,17.40
2023-02-16T09:46:12.262Z,16.89
2023-02-16T09:47:53.847Z,17.48
2023-02-16T09:49:25.187Z,17.20
2023-02-16T09:50:56.632Z,17.00
2023-02-16T09:52:27.962Z,15.67
2023-02-16T09:53:59.310Z,15.85
2023-02-16T09:55:30.679Z,16.13
2023-02-16T09:57:01.973Z,16.16
2023-02-16T10:00:56.809Z,14.97
2023-02-16T10:02:28.142Z,16.20
2023-02-16T10:03:59.557Z,16.34
2023-02-16T10:05:30.899Z,16.55
2023-02-16T10:07:02.223Z,16.54
2023-02-16T10:08:34.024Z,16.39
2023-02-16T10:10:05.617Z,15.84
2023-02-16T10:11:36.973Z,15.16
2023-02-16T10:13:08.298Z,16.86
2023-02-16T10:14:59.794Z,16.45
2023-02-16T10:16:31.074Z,15.05
2023-02-16T10:18:02.705Z,16.01
2023-02-16T10:19:34.613Z,16.25
2023-02-16T10:21:06.340Z,16.07
2023-02-16T10:22:38.144Z,14.23
2023-02-16T10:24:09.856Z,14.30
2023-02-16T10:25:41.166Z,17.31
2023-02-16T10:27:12.466Z,18.30
2023-02-16T10:28:44.112Z,16.77
2023-02-16T10:30:15.663Z,17.67
2023-02-16T10:31:47.144Z,17.76
2023-02-16T10:33:18.583Z,17.80
2023-02-16T10:34:50.209Z,18.19
2023-02-16T10:38:35.035Z,17.81
2023-02-16T10:40:06.443Z,17.95
2023-02-16T10:41:42.811Z,17.70
2023-02-16T10:43:55.557Z,17.62
2023-02-16T10:45:27.396Z,18.03
2023-02-16T10:46:58.760Z,17.06
2023-02-16T10:48:30.111Z,17.59
2023-02-16T10:50:01.812Z,16.83
2023-02-16T10:51:33.335Z,17.30
2023-02-16T10:53:04.894Z,17.53
2023-02-16T10:54:51.264Z,16.90
2023-02-16T10:56:22.809Z,17.06
2023-02-16T10:57:54.874Z,17.34
2023-02-16T10:59:26.171Z,17.13
2023-02-16T11:00:57.741Z,15.78
2023-02-16T11:02:55.623Z,16.23
2023-02-16T11:04:27.133Z,16.58
2023-02-16T11:05:58.748Z,16.98
2023-02-16T11:09:45.400Z,15.87
2023-02-16T11:11:16.908Z,16.31
2023-02-16T11:12:48.669Z,16.87
2023-02-16T11:14:20.124Z,17.31
2023-02-16T11:15:56.468Z,17.10
2023-02-16T11:17:27.799Z,17.23
2023-02-16T11:19:19.352Z,17.06
2023-02-16T11:20:51.417Z,16.88
2023-02-16T11:22:22.838Z,17.05
2023-02-16T11:24:30.870Z,17.11
2023-02-16T11:26:02.644Z,17.11
2023-02-16T11:29:30.203Z,16.56
2023-02-16T11:31:01.775Z,17.38
2023-02-16T11:32:53.353Z,17.40
2023-02-16T11:34:24.869Z,12.52
2023-02-16T11:35:56.351Z,15.80
2023-02-16T11:37:32.699Z,16.49
2023-02-16T11:39:14.234Z,15.63
2023-02-16T11:40:46.122Z,16.45
2023-02-16T11:42:17.419Z,16.38
2023-02-16T11:44:18.941Z,15.84
2023-02-16T11:45:50.405Z,17.30
2023-02-16T11:47:22.276Z,17.12
2023-02-16T11:48:58.622Z,17.32
2023-02-16T11:50:31.296Z,14.36
2023-02-16T11:52:32.763Z,15.97
2023-02-16T11:54:32.033Z,17.91
2023-02-16T11:56:20.708Z,18.19
2023-02-16T11:58:22.188Z,16.84
2023-02-16T12:00:28.803Z,18.19
2023-02-16T12:02:05.322Z,16.27
2023-02-16T12:03:51.840Z,16.80
2023-02-16T12:05:23.464Z,18.43
2023-02-16T12:06:55.076Z,17.48
2023-02-16T12:08:26.614Z,18.41
2023-02-16T12:09:57.959Z,18.32
2023-02-16T12:11:29.571Z,19.16
2023-02-16T12:13:05.331Z,18.92
2023-02-16T12:14:36.896Z,18.19
2023-02-16T12:16:15.380Z,18.76
2023-02-16T12:18:11.689Z,18.98
2023-02-16T12:19:58.283Z,19.14
2023-02-16T12:21:30.075Z,18.90
2023-02-16T12:23:09.791Z,19.19
2023-02-16T12:24:41.535Z,19.70
2023-02-16T12:26:24.821Z,19.81
2023-02-16T12:27:56.911Z,19.85
2023-02-16T12:29:33.473Z,20.46
2023-02-16T12:31:05.353Z,18.62
2023-02-16T12:33:09.709Z,19.75
2023-02-16T12:34:48.867Z,20.91
2023-02-16T12:37:00.011Z,20.76
2023-02-16T12:39:20.693Z,21.36
2023-02-16T12:41:08.568Z,21.17
2023-02-16T12:44:37.430Z,21.67
2023-02-16T12:47:21.052Z,22.47
2023-02-16T12:48:53.057Z,22.43
2023-02-16T12:51:05.754Z,22.98
2023-02-16T12:54:39.857Z,22.02
2023-02-16T12:56:34.203Z,21.88
2023-02-16T12:58:05.929Z,21.94
2023-02-16T12:59:37.967Z,21.47
2023-02-16T13:01:09.820Z,21.00
2023-02-16T13:03:04.823Z,21.08
2023-02-16T13:04:47.116Z,20.43
2023-02-16T13:06:28.470Z,20.89
2023-02-16T13:08:21.945Z,20.96
2023-02-16T13:09:53.402Z,20.56
2023-02-16T13:11:34.880Z,19.80
2023-02-16T13:13:20.685Z,19.69
2023-02-16T13:15:10.946Z,20.08
2023-02-16T13:16:48.328Z,16.73
2023-02-16T13:18:46.517Z,20.69
2023-02-16T13:20:42.944Z,19.48
2023-02-16T13:22:30.527Z,19.76
2023-02-16T13:24:26.682Z,21.77
2023-02-16T13:25:58.365Z,20.01
2023-02-16T13:27:29.866Z,20.36
2023-02-16T13:29:01.378Z,21.57
2023-02-16T13:30:32.953Z,21.08
2023-02-16T13:32:24.664Z,20.37
2023-02-16T13:34:06.261Z,17.60
2023-02-16T13:35:37.548Z,19.63
2023-02-16T13:37:08.970Z,18.96
2023-02-16T13:38:40.289Z,19.75
2023-02-16T13:40:23.771Z,20.56
2023-02-16T13:42:12.202Z,18.95
2023-02-16T13:43:43.734Z,16.20
2023-02-16T13:45:26.401Z,19.71
2023-02-16T13:47:18.151Z,19.60
2023-02-16T13:48:49.479Z,19.64
2023-02-16T13:50:20.932Z,21.05
2023-02-16T13:51:52.297Z,20.95
2023-02-16T13:53:23.570Z,20.44
2023-02-16T13:54:55.121Z,20.99
2023-02-16T13:56:26.721Z,19.01
2023-02-16T13:57:58.180Z,20.38
2023-02-16T13:59:29.513Z,19.74
2023-02-16T14:01:00.956Z,20.22
2023-02-16T14:02:32.404Z,20.37
2023-02-16T14:04:03.742Z,20.84
2023-02-16T14:05:35.346Z,19.49
2023-02-16T14:07:06.685Z,19.32
2023-02-16T14:08:38.211Z,18.46
2023-02-16T14:10:09.763Z,17.34
2023-02-16T14:11:41.173Z,19.93
2023-02-16T14:13:12.401Z,20.26
2023-02-16T14:14:43.794Z,19.04
2023-02-16T14:16:15.266Z,19.99
2023-02-16T14:17:46.827Z,18.85
2023-02-16T14:19:18.441Z,19.85
2023-02-16T14:20:50.783Z,19.05
2023-02-16T14:22:22.208Z,18.70
2023-02-16T14:24:13.150Z,19.56
2023-02-16T14:25:44.511Z,20.26
2023-02-16T14:27:16.027Z,20.02
2023-02-16T14:28:47.449Z,20.64
2023-02-16T14:30:18.976Z,21.07
2023-02-16T14:31:50.393Z,20.12
2023-02-16T14:33:21.748Z,19.96
2023-02-16T14:34:54.380Z,19.26
2023-02-16T14:36:25.824Z,19.38
2023-02-16T14:37:57.274Z,18.80
2023-02-16T14:39:28.679Z,20.14
2023-02-16T14:41:00.122Z,19.22
2023-02-16T14:42:31.583Z,19.66
2023-02-16T14:44:02.965Z,18.22
2023-02-16T14:45:34.491Z,19.41
2023-02-16T14:47:05.860Z,20.39
2023-02-16T14:48:37.314Z,20.29
2023-02-16T14:50:08.870Z,20.56
2023-02-16T14:51:40.169Z,19.09
2023-02-16T14:53:11.571Z,20.93
2023-02-16T14:54:43.006Z,19.44
2023-02-16T14:56:14.406Z,20.32
2023-02-16T14:57:45.705Z,21.16
2023-02-16T14:59:22.107Z,19.58
2023-02-16T15:00:53.583Z,20.51
2023-02-16T15:02:25.018Z,19.73
2023-02-16T15:03:56.508Z,21.07
2023-02-16T15:05:32.918Z,19.70
2023-02-16T15:07:05.316Z,20.36
2023-02-16T15:08:36.787Z,20.87
2023-02-16T15:10:08.279Z,20.36
2023-02-16T15:11:39.658Z,20.47
2023-02-16T15:13:10.978Z,21.15
2023-02-16T15:14:42.362Z,20.69
2023-02-16T15:16:13.725Z,20.23
2023-02-16T15:17:45.549Z,20.06
2023-02-16T15:19:16.942Z,19.39
2023-02-16T15:20:48.430Z,19.85
2023-02-16T15:22:19.725Z,19.64
2023-02-16T15:23:51.045Z,18.73
2023-02-16T15:25:22.729Z,17.99
2023-02-16T15:26:54.384Z,19.24
2023-02-16T15:28:25.721Z,20.24
2023-02-16T15:29:57.218Z,19.53
2023-02-16T15:31:28.672Z,18.85
2023-02-16T15:33:00.365Z,19.05
2023-02-16T15:34:32.015Z,18.42
2023-02-16T15:36:03.551Z,18.46
2023-02-16T15:37:35.112Z,18.82
2023-02-16T15:39:06.428Z,19.07
2023-02-16T15:40:43.137Z,18.73
2023-02-16T15:42:14.731Z,19.47
2023-02-16T15:43:46.272Z,19.52
2023-02-16T15:45:17.786Z,17.85
2023-02-16T15:46:49.282Z,17.60
2023-02-16T15:48:20.845Z,18.10
2023-02-16T15:49:52.357Z,17.68
2023-02-16T15:51:23.852Z,17.72
2023-02-16T15:53:15.207Z,17.61
2023-02-16T15:54:46.818Z,17.95
2023-02-16T15:56:18.160Z,18.01
2023-02-16T15:57:49.991Z,17.35
2023-02-16T15:59:21.613Z,17.53
2023-02-16T16:01:00.011Z,17.86
2023-02-16T16:02:46.266Z,17.84
2023-02-16T16:04:18.043Z,17.28
2023-02-16T16:05:51.739Z,17.59
2023-02-16T16:07:47.889Z,19.55
2023-02-16T16:09:21.171Z,18.57
2023-02-16T16:10:53.093Z,17.14
2023-02-16T16:12:25.045Z,17.38
2023-02-16T16:13:56.476Z,17.06
2023-02-16T16:15:49.905Z,16.95
2023-02-16T16:17:33.316Z,17.32
2023-02-16T16:19:17.058Z,17.08
2023-02-16T16:20:55.106Z,17.13
2023-02-16T16:22:44.988Z,16.73
2023-02-16T16:24:17.629Z,16.12
2023-02-16T16:25:54.476Z,16.63
2023-02-16T16:35:38.203Z,15.91
2023-02-16T16:37:39.098Z,16.53
2023-02-16T16:39:10.780Z,16.37
2023-02-16T16:41:09.316Z,16.28
2023-02-16T16:42:41.351Z,16.16
2023-02-16T16:44:12.940Z,15.76
2023-02-16T16:45:44.558Z,15.78
2023-02-16T16:47:26.114Z,16.24
2023-02-16T16:48:57.778Z,16.35
2023-02-16T16:50:30.056Z,15.87
2023-02-16T16:52:06.841Z,15.74
2023-02-16T16:53:52.449Z,15.29
2023-02-16T16:55:24.250Z,14.95
2023-02-16T16:56:56.372Z,14.86
2023-02-16T16:58:28.180Z,15.06
2023-02-16T17:00:00.695Z,15.02
2023-02-16T17:01:32.717Z,15.28
2023-02-16T17:03:04.550Z,14.55
2023-02-16T17:04:36.542Z,14.79
2023-02-16T17:06:08.436Z,14.92
2023-02-16T17:07:54.406Z,14.67
2023-02-16T17:09:29.131Z,14.54
2023-02-16T17:11:00.707Z,14.59
2023-02-16T17:12:48.626Z,15.07
2023-02-16T17:16:31.013Z,15.13
2023-02-16T17:18:09.416Z,14.79
2023-02-16T17:20:00.877Z,15.31
2023-02-16T17:21:38.337Z,14.59
2023-02-16T17:25:26.081Z,14.42
2023-02-16T17:27:08.298Z,14.89
2023-02-16T17:28:44.763Z,15.01
2023-02-16T17:30:16.232Z,13.95
2023-02-16T17:31:49.554Z,14.12
2023-02-16T17:33:52.332Z,14.65
2023-02-16T17:35:43.820Z,15.79
2023-02-16T17:37:16.068Z,15.04
2023-02-16T17:38:48.720Z,14.67
2023-02-16T17:40:28.483Z,14.09
2023-02-16T17:42:01.455Z,13.72
2023-02-16T17:43:32.907Z,13.79
2023-02-16T17:45:04.204Z,14.01
2023-02-16T17:46:35.562Z,13.84
2023-02-16T17:48:07.003Z,13.65
2023-02-16T17:49:51.024Z,14.42
2023-02-16T17:51:24.297Z,14.08
2023-02-16T17:53:00.839Z,13.71
2023-02-16T17:56:58.656Z,13.69
2023-02-16T17:58:30.259Z,14.01
2023-02-16T18:00:27.264Z,13.34
2023-02-16T18:02:13.912Z,13.61
2023-02-16T18:04:11.643Z,12.98
2023-02-16T18:05:43.402Z,13.59
2023-02-16T18:07:19.937Z,13.21
2023-02-16T18:09:15.033Z,13.83
2023-02-16T18:10:46.741Z,13.47
2023-02-16T18:12:18.536Z,13.91
2023-02-16T18:13:50.151Z,13.15
2023-02-16T18:15:22.173Z,13.63
2023-02-16T18:16:59.106Z,14.19
2023-02-16T18:18:46.308Z,13.20
2023-02-16T18:20:19.251Z,13.03
2023-02-16T18:21:50.724Z,13.63
2023-02-16T18:23:22.125Z,12.72
2023-02-16T18:25:27.216Z,12.21
2023-02-16T18:26:58.670Z,11.28
2023-02-16T18:28:39.195Z,10.81
2023-02-16T18:30:16.260Z,11.56
2023-02-16T18:32:39.067Z,12.41
2023-02-16T18:34:11.519Z,12.64
2023-02-16T18:35:43.204Z,13.61
2023-02-16T18:37:57.723Z,12.53
2023-02-16T18:39:29.346Z,11.53
2023-02-16T18:41:05.972Z,11.54
2023-02-16T18:42:37.423Z,10.93
2023-02-16T18:44:09.137Z,11.04
2023-02-16T18:45:40.742Z,9.56
2023-02-16T18:47:12.407Z,9.72
2023-02-16T18:48:43.967Z,9.10
2023-02-16T18:50:15.595Z,8.14
2023-02-16T18:51:47.363Z,8.47
2023-02-16T18:53:18.985Z,9.12
2023-02-16T18:54:50.421Z,8.76
2023-02-16T18:56:21.981Z,8.75
2023-02-16T18:58:08.275Z,7.85
2023-02-16T18:59:40.453Z,7.49
2023-02-16T19:01:17.164Z,6.21
2023-02-16T19:03:05.361Z,7.44
2023-02-16T19:04:37.147Z,8.24
2023-02-16T19:06:08.901Z,8.39
2023-02-16T19:07:40.538Z,7.32
2023-02-16T19:09:12.113Z,8.33
2023-02-16T19:10:43.754Z,7.78
2023-02-16T19:12:35.640Z,6.79
2023-02-16T19:14:09.250Z,6.55
2023-02-16T19:15:40.969Z,5.82
2023-02-16T19:17:13.148Z,7.02
2023-02-16T19:18:44.954Z,8.16
2023-02-16T19:20:20.863Z,7.47
2023-02-16T19:22:13.398Z,9.10
2023-02-16T19:23:45.973Z,10.19
2023-02-16T19:25:24.753Z,8.33
2023-02-16T19:27:17.568Z,9.99
2023-02-16T19:28:54.743Z,10.33
2023-02-16T19:30:36.703Z,9.87
2023-02-16T19:32:08.589Z,9.88
2023-02-16T19:33:40.358Z,10.56
2023-02-16T19:35:17.625Z,10.17
2023-02-16T19:36:49.833Z,10.85
2023-02-16T19:38:21.406Z,10.19
2023-02-16T19:39:53.837Z,11.39
2023-02-16T19:41:26.239Z,10.94
2023-02-16T19:43:00.004Z,11.48
2023-02-16T19:44:45.270Z,11.63
2023-02-16T19:46:17.335Z,11.14
2023-02-16T19:47:49.585Z,11.98
2023-02-16T19:49:21.400Z,11.70
2023-02-16T19:51:36.477Z,10.83
2023-02-16T19:53:08.396Z,12.12
2023-02-16T19:54:40.218Z,12.63
2023-02-16T19:56:12.054Z,12.74
2023-02-16T19:58:03.303Z,12.74
2023-02-16T19:59:48.676Z,12.99
2023-02-16T20:01:21.074Z,14.06
2023-02-16T20:03:04.085Z,14.36
2023-02-16T20:04:41.684Z,14.06
2023-02-16T20:06:13.683Z,14.54
2023-02-16T20:07:45.323Z,15.52
2023-02-16T20:10:10.408Z,16.54
2023-02-16T20:11:47.975Z,16.47
2023-02-16T20:13:20.603Z,17.24
2023-02-16T20:14:52.460Z,18.08
2023-02-16T20:16:43.808Z,18.09
2023-02-16T20:18:31.678Z,17.72
2023-02-16T20:20:22.255Z,18.70
2023-02-16T20:22:03.805Z,18.04
2023-02-16T20:23:40.464Z,19.47
2023-02-16T20:25:21.552Z,19.49
2023-02-16T20:29:29.250Z,19.28
2023-02-16T20:31:01.349Z,19.32
2023-02-16T20:32:47.137Z,18.93
2023-02-16T20:34:23.809Z,20.14
2023-02-16T20:35:55.072Z,18.92
2023-02-16T20:37:34.676Z,19.57
2023-02-16T20:39:06.296Z,19.65
2023-02-16T20:40:38.180Z,20.71
2023-02-16T20:42:09.625Z,20.55
2023-02-16T20:43:41.416Z,20.93
2023-02-16T20:45:13.543Z,20.54
2023-02-16T20:46:45.234Z,21.14
2023-02-16T20:48:16.585Z,19.85
2023-02-16T20:49:47.956Z,20.63